Accueil
METAR-TAF:

METAR-TAF

Aéroports :

Aéroport de Laval - Entrammes

Laval, France

latitude: 48-01-56N, longitude: 000-44-34W, altitude: 101 m

Observation

Le bulletin a été fait il y a 38 minutes, à 17:30 UTC
Vent 10 kt de ouest/sud-ouest, variant entre sud/sud-ouest et ouest
Température 21°C
Humidité 53%
Pression 1014 hPa
Visibilité 10 km ou plus
Quelques nuages à une hauteur de 4300 ft

METAR: LFOV 281730Z AUTO 24010KT 200V270 9999 FEW043 21/11 Q1014

Heure: 20:08 (18:08 UTC)


TAF: absent

Observations et prévisions météorologiques de plus de 4000 aéroports (messages METAR et TAF).

Les stations disponibles sont représentées par des disques jaunes et rouges sur la carte.

Passer la souris dessus pour voir le nom de la station.

Cliquer dessus pour voir les observations et prévisions météorologiques.

Pour changer de carte: cliquez sur les boutons verts avec une croix noire pour zoomer, sur le bouton vert avec un tiret pour effectuer un zoom arrière, ou sur les flèches vertes pour les cartes adjacentes.


METAR-TAF: